sensor_id;sensor_type;location;lat;lon;timestamp;pressure;altitude;pressure_sealevel;temperature;humidity
58973;BME280;44750;52.040;7.472;2023-01-24T09:32:43;102440.16;;;2.13;100.00
58973;BME280;44750;52.040;7.472;2023-01-24T09:37:44;102433.94;;;2.13;100.00
58973;BME280;44750;52.040;7.472;2023-01-24T09:42:52;102426.84;;;2.12;100.00
58973;BME280;44750;52.040;7.472;2023-01-24T09:47:59;102450.53;;;2.21;100.00
58973;BME280;44750;52.040;7.472;2023-01-24T09:53:01;102431.09;;;2.17;100.00
58973;BME280;44750;52.040;7.472;2023-01-24T09:58:03;102421.50;;;2.12;100.00
58973;BME280;44750;52.040;7.472;2023-01-24T10:03:13;102422.31;;;2.14;100.00
58973;BME280;44750;52.040;7.472;2023-01-24T10:13:54;102432.41;;;2.31;100.00
58973;BME280;44750;52.040;7.472;2023-01-24T10:19:03;102408.03;;;2.15;100.00
58973;BME280;44750;52.040;7.472;2023-01-24T10:24:09;102412.88;;;2.04;100.00
58973;BME280;44750;52.040;7.472;2023-01-24T10:34:29;102448.50;;;2.28;100.00
58973;BME280;44750;52.040;7.472;2023-01-24T10:39:31;102442.16;;;2.32;100.00
58973;BME280;44750;52.040;7.472;2023-01-24T10:44:35;102408.84;;;2.17;100.00
58973;BME280;44750;52.040;7.472;2023-01-24T10:49:38;102430.75;;;2.27;100.00
58973;BME280;44750;52.040;7.472;2023-01-24T10:59:46;102437.56;;;2.36;100.00
58973;BME280;44750;52.040;7.472;2023-01-24T11:04:46;102386.72;;;2.13;100.00
58973;BME280;44750;52.040;7.472;2023-01-24T11:09:47;102413.69;;;2.31;100.00
58973;BME280;44750;52.040;7.472;2023-01-24T11:14:48;102393.34;;;2.27;100.00
58973;BME280;44750;52.040;7.472;2023-01-24T11:20:00;102377.47;;;2.22;100.00
58973;BME280;44750;52.040;7.472;2023-01-24T11:25:03;102394.72;;;2.37;100.00
58973;BME280;44750;52.040;7.472;2023-01-24T11:35:20;102383.25;;;2.57;100.00
58973;BME280;44750;52.040;7.472;2023-01-24T12:22:49;102331.72;;;2.98;100.00
58973;BME280;44750;52.040;7.472;2023-01-24T12:27:50;102280.75;;;2.80;100.00
58973;BME280;44750;52.040;7.472;2023-01-24T12:32:59;102278.13;;;2.79;100.00
58973;BME280;44750;52.040;7.472;2023-01-24T12:38:16;102269.78;;;2.87;100.00
58973;BME280;44750;52.040;7.472;2023-01-24T12:48:48;102243.44;;;2.77;100.00
58973;BME280;44750;52.040;7.472;2023-01-24T12:53:57;102257.06;;;2.92;100.00
58973;BME280;44750;52.040;7.472;2023-01-24T12:58:59;102237.06;;;2.80;100.00
58973;BME280;44750;52.040;7.472;2023-01-24T13:04:15;102209.69;;;2.53;100.00
58973;BME280;44750;52.040;7.472;2023-01-24T13:09:42;102245.44;;;2.72;100.00
58973;BME280;44750;52.040;7.472;2023-01-24T13:14:55;102231.09;;;2.73;100.00
58973;BME280;44750;52.040;7.472;2023-01-24T13:20:07;102234.91;;;2.67;100.00
58973;BME280;44750;52.040;7.472;2023-01-24T13:25:38;102225.03;;;2.70;100.00
58973;BME280;44750;52.040;7.472;2023-01-24T13:31:12;102226.78;;;2.71;100.00
58973;BME280;44750;52.040;7.472;2023-01-24T13:36:17;102235.59;;;2.73;100.00
58973;BME280;44750;52.040;7.472;2023-01-24T13:41:34;102220.16;;;2.59;100.00
58973;BME280;44750;52.040;7.472;2023-01-24T13:51:43;102251.78;;;2.47;100.00
58973;BME280;44750;52.040;7.472;2023-01-24T14:02:20;102256.34;;;2.45;100.00
58973;BME280;44750;52.040;7.472;2023-01-24T14:07:39;102265.59;;;2.59;100.00
58973;BME280;44750;52.040;7.472;2023-01-24T14:12:52;102253.00;;;2.61;100.00
58973;BME280;44750;52.040;7.472;2023-01-24T14:17:53;102245.56;;;2.47;100.00
58973;BME280;44750;52.040;7.472;2023-01-24T14:22:57;102233.75;;;2.30;100.00
58973;BME280;44750;52.040;7.472;2023-01-24T14:28:01;102258.44;;;2.37;100.00
58973;BME280;44750;52.040;7.472;2023-01-24T14:38:21;102306.44;;;2.40;100.00
58973;BME280;44750;52.040;7.472;2023-01-24T14:43:24;102311.66;;;2.43;100.00
58973;BME280;44750;52.040;7.472;2023-01-24T14:48:26;102285.78;;;2.22;100.00
58973;BME280;44750;52.040;7.472;2023-01-24T14:53:30;102284.44;;;2.10;100.00
58973;BME280;44750;52.040;7.472;2023-01-24T14:58:31;102291.69;;;2.06;100.00
58973;BME280;44750;52.040;7.472;2023-01-24T15:03:33;102292.41;;;2.11;100.00
58973;BME280;44750;52.040;7.472;2023-01-24T15:08:34;102303.03;;;2.13;100.00
58973;BME280;44750;52.040;7.472;2023-01-24T15:13:41;102276.72;;;2.02;100.00
58973;BME280;44750;52.040;7.472;2023-01-24T15:18:46;102311.81;;;2.16;100.00
58973;BME280;44750;52.040;7.472;2023-01-24T15:23:52;102320.50;;;2.22;100.00
58973;BME280;44750;52.040;7.472;2023-01-24T15:28:53;102272.94;;;2.08;100.00
58973;BME280;44750;52.040;7.472;2023-01-24T15:33:58;102298.94;;;2.26;100.00
58973;BME280;44750;52.040;7.472;2023-01-24T15:39:00;102257.88;;;2.07;100.00
58973;BME280;44750;52.040;7.472;2023-01-24T15:44:09;102283.19;;;2.18;100.00
58973;BME280;44750;52.040;7.472;2023-01-24T15:49:23;102280.31;;;2.25;100.00
58973;BME280;44750;52.040;7.472;2023-01-24T15:54:23;102279.50;;;2.23;100.00
58973;BME280;44750;52.040;7.472;2023-01-24T15:59:24;102253.16;;;2.13;100.00
58973;BME280;44750;52.040;7.472;2023-01-24T16:04:24;102274.16;;;2.23;100.00
58973;BME280;44750;52.040;7.472;2023-01-24T16:09:24;102280.00;;;2.32;100.00
58973;BME280;44750;52.040;7.472;2023-01-24T16:14:25;102244.09;;;2.17;100.00
58973;BME280;44750;52.040;7.472;2023-01-24T16:19:26;102251.56;;;2.08;100.00
58973;BME280;44750;52.040;7.472;2023-01-24T16:24:26;102286.56;;;2.24;100.00
58973;BME280;44750;52.040;7.472;2023-01-24T16:29:28;102282.97;;;2.25;100.00
58973;BME280;44750;52.040;7.472;2023-01-24T16:34:29;102218.44;;;1.90;100.00
58973;BME280;44750;52.040;7.472;2023-01-24T16:39:29;102253.41;;;1.83;100.00
58973;BME280;44750;52.040;7.472;2023-01-24T16:44:30;102248.41;;;1.74;100.00
58973;BME280;44750;52.040;7.472;2023-01-24T16:49:30;102262.56;;;1.76;100.00
58973;BME280;44750;52.040;7.472;2023-01-24T16:54:30;102288.88;;;1.87;100.00
58973;BME280;44750;52.040;7.472;2023-01-24T16:59:30;102292.31;;;1.91;100.00
58973;BME280;44750;52.040;7.472;2023-01-24T17:04:31;102308.66;;;2.05;100.00
58973;BME280;44750;52.040;7.472;2023-01-24T17:09:31;102311.94;;;2.13;100.00
58973;BME280;44750;52.040;7.472;2023-01-24T17:14:35;102333.63;;;2.28;100.00
58973;BME280;44750;52.040;7.472;2023-01-24T17:19:35;102312.50;;;2.22;100.00
58973;BME280;44750;52.040;7.472;2023-01-24T17:24:35;102280.84;;;2.11;100.00
58973;BME280;44750;52.040;7.472;2023-01-24T17:29:36;102287.00;;;2.13;100.00
58973;BME280;44750;52.040;7.472;2023-01-24T17:34:36;102264.06;;;2.07;100.00
58973;BME280;44750;52.040;7.472;2023-01-24T17:39:36;102260.56;;;2.05;100.00
58973;BME280;44750;52.040;7.472;2023-01-24T17:44:36;102232.59;;;1.92;100.00
58973;BME280;44750;52.040;7.472;2023-01-24T17:49:37;102237.03;;;1.93;100.00
58973;BME280;44750;52.040;7.472;2023-01-24T17:54:37;102241.31;;;1.97;100.00
58973;BME280;44750;52.040;7.472;2023-01-24T17:59:37;102242.69;;;2.07;100.00
58973;BME280;44750;52.040;7.472;2023-01-24T18:04:37;102208.63;;;1.90;100.00
58973;BME280;44750;52.040;7.472;2023-01-24T18:09:38;102224.59;;;1.92;100.00
58973;BME280;44750;52.040;7.472;2023-01-24T18:14:38;102188.88;;;1.72;100.00
58973;BME280;44750;52.040;7.472;2023-01-24T18:19:38;102208.47;;;1.71;100.00
58973;BME280;44750;52.040;7.472;2023-01-24T18:24:38;102259.09;;;1.98;100.00
58973;BME280;44750;52.040;7.472;2023-01-24T18:29:38;102228.44;;;1.84;100.00
58973;BME280;44750;52.040;7.472;2023-01-24T18:34:39;102195.34;;;1.65;100.00
58973;BME280;44750;52.040;7.472;2023-01-24T18:39:39;102205.06;;;1.67;100.00
58973;BME280;44750;52.040;7.472;2023-01-24T18:44:44;102213.81;;;1.71;100.00
58973;BME280;44750;52.040;7.472;2023-01-24T18:49:44;102210.03;;;1.77;100.00
58973;BME280;44750;52.040;7.472;2023-01-24T18:54:44;102199.56;;;1.72;100.00
58973;BME280;44750;52.040;7.472;2023-01-24T18:59:44;102205.53;;;1.79;100.00
58973;BME280;44750;52.040;7.472;2023-01-24T19:04:45;102185.25;;;1.73;100.00
58973;BME280;44750;52.040;7.472;2023-01-24T19:09:45;102187.47;;;1.62;100.00
58973;BME280;44750;52.040;7.472;2023-01-24T19:14:45;102201.53;;;1.67;100.00
58973;BME280;44750;52.040;7.472;2023-01-24T19:19:45;102205.00;;;1.69;100.00
58973;BME280;44750;52.040;7.472;2023-01-24T19:24:45;102207.50;;;1.74;100.00
58973;BME280;44750;52.040;7.472;2023-01-24T19:29:46;102187.34;;;1.65;100.00
58973;BME280;44750;52.040;7.472;2023-01-24T19:34:46;102226.53;;;1.88;100.00
58973;BME280;44750;52.040;7.472;2023-01-24T19:39:46;102202.66;;;1.83;100.00
58973;BME280;44750;52.040;7.472;2023-01-24T19:44:46;102200.28;;;1.76;100.00
58973;BME280;44750;52.040;7.472;2023-01-24T19:49:47;102223.03;;;1.86;100.00
58973;BME280;44750;52.040;7.472;2023-01-24T19:54:47;102186.13;;;1.74;100.00
58973;BME280;44750;52.040;7.472;2023-01-24T19:59:47;102192.34;;;1.74;100.00
58973;BME280;44750;52.040;7.472;2023-01-24T20:04:47;102192.47;;;1.71;100.00
58973;BME280;44750;52.040;7.472;2023-01-24T20:09:48;102190.56;;;1.75;100.00
58973;BME280;44750;52.040;7.472;2023-01-24T20:14:48;102186.91;;;1.77;100.00
58973;BME280;44750;52.040;7.472;2023-01-24T20:19:48;102203.34;;;1.89;100.00
58973;BME280;44750;52.040;7.472;2023-01-24T20:24:48;102188.19;;;1.89;100.00
58973;BME280;44750;52.040;7.472;2023-01-24T20:29:49;102171.75;;;1.78;100.00
58973;BME280;44750;52.040;7.472;2023-01-24T20:34:49;102203.28;;;1.90;100.00
58973;BME280;44750;52.040;7.472;2023-01-24T20:39:49;102171.16;;;1.70;100.00
58973;BME280;44750;52.040;7.472;2023-01-24T20:44:49;102163.53;;;1.60;100.00
58973;BME280;44750;52.040;7.472;2023-01-24T20:49:50;102154.06;;;1.52;100.00
58973;BME280;44750;52.040;7.472;2023-01-24T20:54:50;102186.00;;;1.55;100.00
58973;BME280;44750;52.040;7.472;2023-01-24T20:59:50;102202.50;;;1.64;100.00
58973;BME280;44750;52.040;7.472;2023-01-24T21:04:50;102164.97;;;1.45;100.00
58973;BME280;44750;52.040;7.472;2023-01-24T21:09:50;102164.69;;;1.29;100.00
58973;BME280;44750;52.040;7.472;2023-01-24T21:14:51;102189.16;;;1.41;100.00
58973;BME280;44750;52.040;7.472;2023-01-24T21:19:52;102196.94;;;1.47;100.00
58973;BME280;44750;52.040;7.472;2023-01-24T21:24:52;102183.59;;;1.47;100.00
58973;BME280;44750;52.040;7.472;2023-01-24T21:29:52;102204.59;;;1.56;100.00
58973;BME280;44750;52.040;7.472;2023-01-24T21:34:52;102200.00;;;1.60;100.00
58973;BME280;44750;52.040;7.472;2023-01-24T21:39:53;102169.38;;;1.46;100.00
58973;BME280;44750;52.040;7.472;2023-01-24T21:44:53;102169.03;;;1.32;100.00
58973;BME280;44750;52.040;7.472;2023-01-24T21:49:53;102155.34;;;1.17;100.00
58973;BME280;44750;52.040;7.472;2023-01-24T21:54:53;102170.19;;;1.25;100.00
58973;BME280;44750;52.040;7.472;2023-01-24T21:59:55;102205.03;;;1.44;100.00
58973;BME280;44750;52.040;7.472;2023-01-24T22:04:56;102163.81;;;1.29;100.00
58973;BME280;44750;52.040;7.472;2023-01-24T22:09:58;102172.78;;;1.26;100.00
58973;BME280;44750;52.040;7.472;2023-01-24T22:14:59;102179.75;;;1.30;100.00
58973;BME280;44750;52.040;7.472;2023-01-24T22:19:59;102178.81;;;1.31;100.00
58973;BME280;44750;52.040;7.472;2023-01-24T22:30:20;102156.84;;;1.25;100.00
58973;BME280;44750;52.040;7.472;2023-01-24T22:35:23;102145.81;;;1.10;100.00
58973;BME280;44750;52.040;7.472;2023-01-24T22:40:24;102177.31;;;1.24;100.00
58973;BME280;44750;52.040;7.472;2023-01-24T22:45:28;102136.06;;;1.09;100.00
58973;BME280;44750;52.040;7.472;2023-01-24T22:50:29;102155.09;;;1.24;100.00
58973;BME280;44750;52.040;7.472;2023-01-24T22:55:29;102122.06;;;1.04;100.00
58973;BME280;44750;52.040;7.472;2023-01-24T23:00:29;102120.38;;;1.02;100.00
58973;BME280;44750;52.040;7.472;2023-01-24T23:05:29;102109.72;;;1.02;100.00
58973;BME280;44750;52.040;7.472;2023-01-24T23:10:29;102107.44;;;0.91;100.00
58973;BME280;44750;52.040;7.472;2023-01-24T23:15:30;102121.47;;;0.71;100.00
58973;BME280;44750;52.040;7.472;2023-01-24T23:20:30;102137.75;;;0.88;100.00
58973;BME280;44750;52.040;7.472;2023-01-24T23:25:30;102129.69;;;0.90;100.00
58973;BME280;44750;52.040;7.472;2023-01-24T23:30:44;102132.22;;;0.93;100.00
58973;BME280;44750;52.040;7.472;2023-01-24T23:35:45;102139.03;;;1.02;100.00
58973;BME280;44750;52.040;7.472;2023-01-24T23:40:45;102138.69;;;1.11;100.00
58973;BME280;44750;52.040;7.472;2023-01-24T23:45:46;102136.06;;;1.09;100.00
58973;BME280;44750;52.040;7.472;2023-01-24T23:50:54;102076.69;;;0.80;100.00
58973;BME280;44750;52.040;7.472;2023-01-24T23:55:54;102097.31;;;0.75;100.00
